Terminal Aerodrome Forecast
Issued by NWS

Home | Current Version | Previous Version | Graphics & Text | Print | Product List | Glossary On
Versions: 1 2 3 4 5 6 7 8 9 10 11 12 13 14 15 16 17
000
FTUS43 KICT 200534
TAFRSL
TAF
KRSL 200534Z 2006/2106 11004KT 1/2SM FG OVC002
      TEMPO 2006/2008 1/4SM FG OVC001
     FM200800 09004KT 1/4SM FG OVC002
     FM201600 VRB03KT 1SM BR OVC003
     FM201800 17005KT 5SM BR OVC008
     FM202000 19006KT P6SM OVC012
     FM210300 22008KT P6SM BKN035=

USA.gov is the U.S. government's official web portal to all federal, state and local government web resources and services.